sensor_id;sensor_type;location;lat;lon;timestamp;temperature;humidity
4964;DHT22;2497;47.410;9.740;2022-11-13T00:02:09;6.00;99.90
4964;DHT22;2497;47.410;9.740;2022-11-13T00:04:36;6.00;99.90
4964;DHT22;2497;47.410;9.740;2022-11-13T00:07:04;6.00;99.90
4964;DHT22;2497;47.410;9.740;2022-11-13T00:09:32;6.00;99.90
4964;DHT22;2497;47.410;9.740;2022-11-13T00:12:01;6.00;99.90
4964;DHT22;2497;47.410;9.740;2022-11-13T00:14:29;6.00;99.90
4964;DHT22;2497;47.410;9.740;2022-11-13T00:16:56;6.00;99.90
4964;DHT22;2497;47.410;9.740;2022-11-13T00:19:23;5.90;99.90
4964;DHT22;2497;47.410;9.740;2022-11-13T00:21:51;6.00;99.90
4964;DHT22;2497;47.410;9.740;2022-11-13T00:24:19;5.90;99.90
4964;DHT22;2497;47.410;9.740;2022-11-13T00:26:47;6.00;99.90
4964;DHT22;2497;47.410;9.740;2022-11-13T00:29:16;5.90;99.90
4964;DHT22;2497;47.410;9.740;2022-11-13T00:31:44;5.90;99.90
4964;DHT22;2497;47.410;9.740;2022-11-13T00:34:11;6.00;99.90
4964;DHT22;2497;47.410;9.740;2022-11-13T00:36:39;6.00;99.90
4964;DHT22;2497;47.410;9.740;2022-11-13T00:39:07;5.90;99.90
4964;DHT22;2497;47.410;9.740;2022-11-13T00:41:35;6.00;99.90
4964;DHT22;2497;47.410;9.740;2022-11-13T00:44:02;6.00;99.90
4964;DHT22;2497;47.410;9.740;2022-11-13T00:46:32;5.90;99.90
4964;DHT22;2497;47.410;9.740;2022-11-13T00:48:59;5.90;99.90
4964;DHT22;2497;47.410;9.740;2022-11-13T00:51:27;5.90;99.90
4964;DHT22;2497;47.410;9.740;2022-11-13T00:53:55;5.90;99.90
4964;DHT22;2497;47.410;9.740;2022-11-13T00:56:22;5.90;99.90
4964;DHT22;2497;47.410;9.740;2022-11-13T00:58:49;5.90;99.90
4964;DHT22;2497;47.410;9.740;2022-11-13T01:01:18;5.90;99.90
4964;DHT22;2497;47.410;9.740;2022-11-13T01:03:48;5.90;99.90
4964;DHT22;2497;47.410;9.740;2022-11-13T01:06:18;5.90;99.90
4964;DHT22;2497;47.410;9.740;2022-11-13T01:08:46;5.80;99.90
4964;DHT22;2497;47.410;9.740;2022-11-13T01:11:15;5.90;99.90
4964;DHT22;2497;47.410;9.740;2022-11-13T01:13:45;5.90;99.90
4964;DHT22;2497;47.410;9.740;2022-11-13T01:16:14;5.90;99.90
4964;DHT22;2497;47.410;9.740;2022-11-13T01:18:42;5.80;99.90
4964;DHT22;2497;47.410;9.740;2022-11-13T01:21:13;5.80;99.90
4964;DHT22;2497;47.410;9.740;2022-11-13T01:23:41;5.70;99.90
4964;DHT22;2497;47.410;9.740;2022-11-13T01:26:11;5.80;99.90
4964;DHT22;2497;47.410;9.740;2022-11-13T01:28:41;5.80;99.90
4964;DHT22;2497;47.410;9.740;2022-11-13T01:31:11;5.80;99.90
4964;DHT22;2497;47.410;9.740;2022-11-13T01:33:38;5.80;99.90
4964;DHT22;2497;47.410;9.740;2022-11-13T01:36:09;5.90;99.90
4964;DHT22;2497;47.410;9.740;2022-11-13T01:38:39;5.80;99.90
4964;DHT22;2497;47.410;9.740;2022-11-13T01:41:07;5.90;99.90
4964;DHT22;2497;47.410;9.740;2022-11-13T01:43:38;5.90;99.90
4964;DHT22;2497;47.410;9.740;2022-11-13T01:46:17;5.90;99.90
4964;DHT22;2497;47.410;9.740;2022-11-13T01:48:48;5.80;99.90
4964;DHT22;2497;47.410;9.740;2022-11-13T01:51:19;5.80;99.90
4964;DHT22;2497;47.410;9.740;2022-11-13T01:53:50;5.80;99.90
4964;DHT22;2497;47.410;9.740;2022-11-13T01:56:19;5.70;99.90
4964;DHT22;2497;47.410;9.740;2022-11-13T01:58:52;5.60;99.90
4964;DHT22;2497;47.410;9.740;2022-11-13T02:01:20;5.60;99.90
4964;DHT22;2497;47.410;9.740;2022-11-13T02:03:47;5.50;99.90
4964;DHT22;2497;47.410;9.740;2022-11-13T02:06:15;5.50;99.90
4964;DHT22;2497;47.410;9.740;2022-11-13T02:08:43;5.50;99.90
4964;DHT22;2497;47.410;9.740;2022-11-13T02:11:13;5.50;99.90
4964;DHT22;2497;47.410;9.740;2022-11-13T02:13:40;5.40;99.90
4964;DHT22;2497;47.410;9.740;2022-11-13T02:16:11;5.40;99.90
4964;DHT22;2497;47.410;9.740;2022-11-13T02:18:39;5.40;99.90
4964;DHT22;2497;47.410;9.740;2022-11-13T02:21:15;5.40;99.90
4964;DHT22;2497;47.410;9.740;2022-11-13T02:23:47;5.40;99.90
4964;DHT22;2497;47.410;9.740;2022-11-13T02:26:22;5.30;99.90
4964;DHT22;2497;47.410;9.740;2022-11-13T02:28:51;5.40;99.90
4964;DHT22;2497;47.410;9.740;2022-11-13T02:31:18;5.40;99.90
4964;DHT22;2497;47.410;9.740;2022-11-13T02:33:46;5.40;99.90
4964;DHT22;2497;47.410;9.740;2022-11-13T02:36:14;5.40;99.90
4964;DHT22;2497;47.410;9.740;2022-11-13T02:38:42;5.40;99.90
4964;DHT22;2497;47.410;9.740;2022-11-13T02:41:10;5.30;99.90
4964;DHT22;2497;47.410;9.740;2022-11-13T02:43:39;5.30;99.90
4964;DHT22;2497;47.410;9.740;2022-11-13T02:46:06;5.30;99.90
4964;DHT22;2497;47.410;9.740;2022-11-13T02:48:34;5.40;99.90
4964;DHT22;2497;47.410;9.740;2022-11-13T02:51:01;5.30;99.90
4964;DHT22;2497;47.410;9.740;2022-11-13T02:53:28;5.30;99.90
4964;DHT22;2497;47.410;9.740;2022-11-13T02:55:56;5.40;99.90
4964;DHT22;2497;47.410;9.740;2022-11-13T02:58:23;5.30;99.90
4964;DHT22;2497;47.410;9.740;2022-11-13T03:00:52;5.30;99.90
4964;DHT22;2497;47.410;9.740;2022-11-13T03:03:20;5.40;99.90
4964;DHT22;2497;47.410;9.740;2022-11-13T03:05:48;5.40;99.90
4964;DHT22;2497;47.410;9.740;2022-11-13T03:08:16;5.50;99.90
4964;DHT22;2497;47.410;9.740;2022-11-13T03:10:45;5.40;99.90
4964;DHT22;2497;47.410;9.740;2022-11-13T03:13:12;5.40;99.90
4964;DHT22;2497;47.410;9.740;2022-11-13T03:15:40;5.40;99.90
4964;DHT22;2497;47.410;9.740;2022-11-13T03:18:09;5.40;99.90
4964;DHT22;2497;47.410;9.740;2022-11-13T03:20:38;5.50;99.90
4964;DHT22;2497;47.410;9.740;2022-11-13T03:23:06;5.50;99.90
4964;DHT22;2497;47.410;9.740;2022-11-13T03:25:34;5.50;99.90
4964;DHT22;2497;47.410;9.740;2022-11-13T03:28:01;5.40;99.90
4964;DHT22;2497;47.410;9.740;2022-11-13T03:30:29;5.40;99.90
4964;DHT22;2497;47.410;9.740;2022-11-13T03:32:56;5.30;99.90
4964;DHT22;2497;47.410;9.740;2022-11-13T03:35:26;5.40;99.90
4964;DHT22;2497;47.410;9.740;2022-11-13T03:37:53;5.40;99.90
4964;DHT22;2497;47.410;9.740;2022-11-13T03:40:21;5.40;99.90
4964;DHT22;2497;47.410;9.740;2022-11-13T03:42:48;5.40;99.90
4964;DHT22;2497;47.410;9.740;2022-11-13T03:45:16;5.40;99.90
4964;DHT22;2497;47.410;9.740;2022-11-13T03:47:43;5.40;99.90
4964;DHT22;2497;47.410;9.740;2022-11-13T03:50:11;5.40;99.90
4964;DHT22;2497;47.410;9.740;2022-11-13T03:52:40;5.40;99.90
4964;DHT22;2497;47.410;9.740;2022-11-13T03:55:08;5.30;99.90
4964;DHT22;2497;47.410;9.740;2022-11-13T03:57:35;5.30;99.90
4964;DHT22;2497;47.410;9.740;2022-11-13T04:00:03;5.40;99.90
4964;DHT22;2497;47.410;9.740;2022-11-13T04:02:31;5.30;99.90
4964;DHT22;2497;47.410;9.740;2022-11-13T04:04:59;5.30;99.90
4964;DHT22;2497;47.410;9.740;2022-11-13T04:07:26;5.40;99.90
4964;DHT22;2497;47.410;9.740;2022-11-13T04:09:55;5.40;99.90
4964;DHT22;2497;47.410;9.740;2022-11-13T04:12:23;5.40;99.90
4964;DHT22;2497;47.410;9.740;2022-11-13T04:14:50;5.40;99.90
4964;DHT22;2497;47.410;9.740;2022-11-13T04:17:18;5.40;99.90
4964;DHT22;2497;47.410;9.740;2022-11-13T04:19:46;5.40;99.90
4964;DHT22;2497;47.410;9.740;2022-11-13T04:22:13;5.40;99.90
4964;DHT22;2497;47.410;9.740;2022-11-13T04:24:41;5.40;99.90
4964;DHT22;2497;47.410;9.740;2022-11-13T04:27:10;5.40;99.90
4964;DHT22;2497;47.410;9.740;2022-11-13T04:29:38;5.30;99.90
4964;DHT22;2497;47.410;9.740;2022-11-13T04:32:05;5.30;99.90
4964;DHT22;2497;47.410;9.740;2022-11-13T04:34:33;5.40;99.90
4964;DHT22;2497;47.410;9.740;2022-11-13T04:37:00;5.40;99.90
4964;DHT22;2497;47.410;9.740;2022-11-13T04:39:31;5.30;99.90
4964;DHT22;2497;47.410;9.740;2022-11-13T04:41:58;5.30;99.90
4964;DHT22;2497;47.410;9.740;2022-11-13T04:44:45;5.30;99.90
4964;DHT22;2497;47.410;9.740;2022-11-13T04:47:12;5.30;99.90
4964;DHT22;2497;47.410;9.740;2022-11-13T04:49:40;5.30;99.90
4964;DHT22;2497;47.410;9.740;2022-11-13T04:52:07;5.40;99.90
4964;DHT22;2497;47.410;9.740;2022-11-13T04:54:35;5.40;99.90
4964;DHT22;2497;47.410;9.740;2022-11-13T04:57:03;5.40;99.90
4964;DHT22;2497;47.410;9.740;2022-11-13T04:59:31;5.40;99.90
4964;DHT22;2497;47.410;9.740;2022-11-13T05:01:59;5.30;99.90
4964;DHT22;2497;47.410;9.740;2022-11-13T05:04:27;5.30;99.90
4964;DHT22;2497;47.410;9.740;2022-11-13T05:06:55;5.30;99.90
4964;DHT22;2497;47.410;9.740;2022-11-13T05:09:22;5.30;99.90
4964;DHT22;2497;47.410;9.740;2022-11-13T05:11:50;5.20;99.90
4964;DHT22;2497;47.410;9.740;2022-11-13T05:14:17;5.20;99.90
4964;DHT22;2497;47.410;9.740;2022-11-13T05:16:45;5.20;99.90
4964;DHT22;2497;47.410;9.740;2022-11-13T05:19:16;5.20;99.90
4964;DHT22;2497;47.410;9.740;2022-11-13T05:21:43;5.20;99.90
4964;DHT22;2497;47.410;9.740;2022-11-13T05:24:11;5.20;99.90
4964;DHT22;2497;47.410;9.740;2022-11-13T05:26:39;5.10;99.90
4964;DHT22;2497;47.410;9.740;2022-11-13T05:29:07;5.10;99.90
4964;DHT22;2497;47.410;9.740;2022-11-13T05:31:34;5.20;99.90
4964;DHT22;2497;47.410;9.740;2022-11-13T05:34:03;5.20;99.90
4964;DHT22;2497;47.410;9.740;2022-11-13T05:36:32;5.20;99.90
4964;DHT22;2497;47.410;9.740;2022-11-13T05:38:59;5.20;99.90
4964;DHT22;2497;47.410;9.740;2022-11-13T05:41:27;5.30;99.90
4964;DHT22;2497;47.410;9.740;2022-11-13T05:43:54;5.30;99.90
4964;DHT22;2497;47.410;9.740;2022-11-13T05:46:23;5.20;99.90
4964;DHT22;2497;47.410;9.740;2022-11-13T05:48:52;5.20;99.90
4964;DHT22;2497;47.410;9.740;2022-11-13T05:51:21;5.20;99.90
4964;DHT22;2497;47.410;9.740;2022-11-13T05:53:51;5.20;99.90
4964;DHT22;2497;47.410;9.740;2022-11-13T05:56:21;5.20;99.90
4964;DHT22;2497;47.410;9.740;2022-11-13T05:58:49;5.20;99.90
4964;DHT22;2497;47.410;9.740;2022-11-13T06:01:20;5.20;99.90
4964;DHT22;2497;47.410;9.740;2022-11-13T06:03:48;5.20;99.90
4964;DHT22;2497;47.410;9.740;2022-11-13T06:06:17;5.20;99.90
4964;DHT22;2497;47.410;9.740;2022-11-13T06:08:45;5.20;99.90
4964;DHT22;2497;47.410;9.740;2022-11-13T06:11:16;5.20;99.90
4964;DHT22;2497;47.410;9.740;2022-11-13T06:13:44;5.10;99.90
4964;DHT22;2497;47.410;9.740;2022-11-13T06:16:15;5.10;99.90
4964;DHT22;2497;47.410;9.740;2022-11-13T06:18:43;5.10;99.90
4964;DHT22;2497;47.410;9.740;2022-11-13T06:21:12;5.20;99.90
4964;DHT22;2497;47.410;9.740;2022-11-13T06:23:40;5.20;99.90
4964;DHT22;2497;47.410;9.740;2022-11-13T06:26:09;5.20;99.90
4964;DHT22;2497;47.410;9.740;2022-11-13T06:28:38;5.20;99.90
4964;DHT22;2497;47.410;9.740;2022-11-13T06:31:09;5.20;99.90
4964;DHT22;2497;47.410;9.740;2022-11-13T06:33:37;5.20;99.90
4964;DHT22;2497;47.410;9.740;2022-11-13T06:36:06;5.30;99.90
4964;DHT22;2497;47.410;9.740;2022-11-13T06:38:36;5.20;99.90
4964;DHT22;2497;47.410;9.740;2022-11-13T06:41:04;5.20;99.90
4964;DHT22;2497;47.410;9.740;2022-11-13T06:43:32;5.20;99.90
4964;DHT22;2497;47.410;9.740;2022-11-13T06:46:05;5.20;99.90
4964;DHT22;2497;47.410;9.740;2022-11-13T06:48:33;5.20;99.90
4964;DHT22;2497;47.410;9.740;2022-11-13T06:51:01;5.20;99.90
4964;DHT22;2497;47.410;9.740;2022-11-13T06:53:29;5.20;99.90
4964;DHT22;2497;47.410;9.740;2022-11-13T06:55:58;5.20;99.90
4964;DHT22;2497;47.410;9.740;2022-11-13T06:58:26;5.20;99.90
4964;DHT22;2497;47.410;9.740;2022-11-13T07:00:53;5.20;99.90
4964;DHT22;2497;47.410;9.740;2022-11-13T07:03:24;5.20;99.90
4964;DHT22;2497;47.410;9.740;2022-11-13T07:05:52;5.20;99.90
4964;DHT22;2497;47.410;9.740;2022-11-13T07:08:19;5.20;99.90
4964;DHT22;2497;47.410;9.740;2022-11-13T07:10:52;5.20;99.90
4964;DHT22;2497;47.410;9.740;2022-11-13T07:13:20;5.20;99.90
4964;DHT22;2497;47.410;9.740;2022-11-13T07:15:47;5.20;99.90
4964;DHT22;2497;47.410;9.740;2022-11-13T07:18:15;5.30;99.90
4964;DHT22;2497;47.410;9.740;2022-11-13T07:20:45;5.30;99.90
4964;DHT22;2497;47.410;9.740;2022-11-13T07:23:12;5.30;99.90
4964;DHT22;2497;47.410;9.740;2022-11-13T07:25:39;5.30;99.90
4964;DHT22;2497;47.410;9.740;2022-11-13T07:28:07;5.30;99.90
4964;DHT22;2497;47.410;9.740;2022-11-13T07:30:34;5.30;99.90
4964;DHT22;2497;47.410;9.740;2022-11-13T07:33:01;5.30;99.90
4964;DHT22;2497;47.410;9.740;2022-11-13T07:35:29;5.30;99.90
4964;DHT22;2497;47.410;9.740;2022-11-13T07:37:59;5.30;99.90
4964;DHT22;2497;47.410;9.740;2022-11-13T07:40:26;5.30;99.90
4964;DHT22;2497;47.410;9.740;2022-11-13T07:42:57;5.40;99.90
4964;DHT22;2497;47.410;9.740;2022-11-13T07:45:25;5.50;99.90
4964;DHT22;2497;47.410;9.740;2022-11-13T07:47:57;5.50;99.90
4964;DHT22;2497;47.410;9.740;2022-11-13T07:50:25;5.40;99.90
4964;DHT22;2497;47.410;9.740;2022-11-13T07:52:55;5.50;99.90
4964;DHT22;2497;47.410;9.740;2022-11-13T07:55:24;5.50;99.90
4964;DHT22;2497;47.410;9.740;2022-11-13T07:57:54;5.50;99.90
4964;DHT22;2497;47.410;9.740;2022-11-13T08:00:22;5.40;99.90
4964;DHT22;2497;47.410;9.740;2022-11-13T08:02:50;5.40;99.90
4964;DHT22;2497;47.410;9.740;2022-11-13T08:05:17;5.40;99.90
4964;DHT22;2497;47.410;9.740;2022-11-13T08:07:46;5.50;99.90
4964;DHT22;2497;47.410;9.740;2022-11-13T08:10:14;5.60;99.90
4964;DHT22;2497;47.410;9.740;2022-11-13T08:12:43;5.60;99.90
4964;DHT22;2497;47.410;9.740;2022-11-13T08:15:12;5.60;99.90
4964;DHT22;2497;47.410;9.740;2022-11-13T08:17:39;5.70;99.90
4964;DHT22;2497;47.410;9.740;2022-11-13T08:20:08;5.70;99.90
4964;DHT22;2497;47.410;9.740;2022-11-13T08:22:36;5.60;99.90
4964;DHT22;2497;47.410;9.740;2022-11-13T08:25:04;5.60;99.90
4964;DHT22;2497;47.410;9.740;2022-11-13T08:27:31;5.70;99.90
4964;DHT22;2497;47.410;9.740;2022-11-13T08:30:01;5.80;99.90
4964;DHT22;2497;47.410;9.740;2022-11-13T08:32:29;5.80;99.90
4964;DHT22;2497;47.410;9.740;2022-11-13T08:34:56;5.70;99.90
4964;DHT22;2497;47.410;9.740;2022-11-13T08:37:24;5.70;99.90
4964;DHT22;2497;47.410;9.740;2022-11-13T08:39:52;5.70;99.90
4964;DHT22;2497;47.410;9.740;2022-11-13T08:42:20;5.80;99.90
4964;DHT22;2497;47.410;9.740;2022-11-13T08:44:47;5.80;99.90
4964;DHT22;2497;47.410;9.740;2022-11-13T08:47:17;5.90;99.90
4964;DHT22;2497;47.410;9.740;2022-11-13T08:49:44;5.90;99.90
4964;DHT22;2497;47.410;9.740;2022-11-13T08:52:12;6.00;99.90
4964;DHT22;2497;47.410;9.740;2022-11-13T08:54:40;5.90;99.90
4964;DHT22;2497;47.410;9.740;2022-11-13T08:57:07;6.00;99.90
4964;DHT22;2497;47.410;9.740;2022-11-13T08:59:34;6.00;99.90
4964;DHT22;2497;47.410;9.740;2022-11-13T09:02:02;6.00;99.90
4964;DHT22;2497;47.410;9.740;2022-11-13T09:04:31;6.00;99.90
4964;DHT22;2497;47.410;9.740;2022-11-13T09:06:59;6.10;99.90
4964;DHT22;2497;47.410;9.740;2022-11-13T09:09:26;6.10;99.90
4964;DHT22;2497;47.410;9.740;2022-11-13T09:11:54;6.20;99.90
4964;DHT22;2497;47.410;9.740;2022-11-13T09:14:21;6.10;99.90
4964;DHT22;2497;47.410;9.740;2022-11-13T09:16:49;6.20;99.90
4964;DHT22;2497;47.410;9.740;2022-11-13T09:19:17;6.20;99.90
4964;DHT22;2497;47.410;9.740;2022-11-13T09:21:47;6.20;99.90
4964;DHT22;2497;47.410;9.740;2022-11-13T09:24:14;6.20;99.90
4964;DHT22;2497;47.410;9.740;2022-11-13T09:26:42;6.20;99.90
4964;DHT22;2497;47.410;9.740;2022-11-13T09:29:09;6.10;99.90
4964;DHT22;2497;47.410;9.740;2022-11-13T09:31:37;6.20;99.90
4964;DHT22;2497;47.410;9.740;2022-11-13T09:34:06;6.20;99.90
4964;DHT22;2497;47.410;9.740;2022-11-13T09:36:34;6.30;99.90
4964;DHT22;2497;47.410;9.740;2022-11-13T09:39:03;6.30;99.90
4964;DHT22;2497;47.410;9.740;2022-11-13T09:41:33;6.40;99.90
4964;DHT22;2497;47.410;9.740;2022-11-13T09:44:05;6.40;99.90
4964;DHT22;2497;47.410;9.740;2022-11-13T09:46:39;6.50;99.90
4964;DHT22;2497;47.410;9.740;2022-11-13T09:49:13;6.50;99.90
4964;DHT22;2497;47.410;9.740;2022-11-13T09:51:47;6.50;99.90
4964;DHT22;2497;47.410;9.740;2022-11-13T09:54:19;6.50;99.90
4964;DHT22;2497;47.410;9.740;2022-11-13T09:56:51;6.40;99.90
4964;DHT22;2497;47.410;9.740;2022-11-13T09:59:26;6.40;99.90
4964;DHT22;2497;47.410;9.740;2022-11-13T10:01:59;6.40;99.90
4964;DHT22;2497;47.410;9.740;2022-11-13T10:04:37;6.30;99.90
4964;DHT22;2497;47.410;9.740;2022-11-13T10:07:17;6.30;99.90
4964;DHT22;2497;47.410;9.740;2022-11-13T10:10:08;6.40;99.90
4964;DHT22;2497;47.410;9.740;2022-11-13T10:12:40;6.40;99.90
4964;DHT22;2497;47.410;9.740;2022-11-13T10:15:10;6.40;99.90
4964;DHT22;2497;47.410;9.740;2022-11-13T10:17:40;6.40;99.90
4964;DHT22;2497;47.410;9.740;2022-11-13T10:20:13;6.20;99.90
4964;DHT22;2497;47.410;9.740;2022-11-13T10:22:48;6.40;99.90
4964;DHT22;2497;47.410;9.740;2022-11-13T10:25:19;6.60;99.90
4964;DHT22;2497;47.410;9.740;2022-11-13T10:27:51;6.30;99.90
4964;DHT22;2497;47.410;9.740;2022-11-13T10:30:19;6.20;99.90
4964;DHT22;2497;47.410;9.740;2022-11-13T10:32:47;6.10;99.90
4964;DHT22;2497;47.410;9.740;2022-11-13T10:35:27;6.30;99.90
4964;DHT22;2497;47.410;9.740;2022-11-13T10:38:01;6.30;99.90
4964;DHT22;2497;47.410;9.740;2022-11-13T10:40:32;6.30;99.90
4964;DHT22;2497;47.410;9.740;2022-11-13T10:43:13;6.40;99.90
4964;DHT22;2497;47.410;9.740;2022-11-13T10:45:41;6.50;99.90
4964;DHT22;2497;47.410;9.740;2022-11-13T10:48:19;6.30;99.90
4964;DHT22;2497;47.410;9.740;2022-11-13T10:50:53;6.40;99.90
4964;DHT22;2497;47.410;9.740;2022-11-13T10:53:21;6.50;99.90
4964;DHT22;2497;47.410;9.740;2022-11-13T10:55:53;6.40;99.90
4964;DHT22;2497;47.410;9.740;2022-11-13T10:58:22;6.30;99.90
4964;DHT22;2497;47.410;9.740;2022-11-13T11:00:49;6.30;99.90
4964;DHT22;2497;47.410;9.740;2022-11-13T11:03:20;6.40;99.90
4964;DHT22;2497;47.410;9.740;2022-11-13T11:05:53;6.50;99.90
4964;DHT22;2497;47.410;9.740;2022-11-13T11:08:25;6.50;99.90
4964;DHT22;2497;47.410;9.740;2022-11-13T11:10:58;6.50;99.90
4964;DHT22;2497;47.410;9.740;2022-11-13T11:13:43;6.40;99.90
4964;DHT22;2497;47.410;9.740;2022-11-13T11:16:16;6.40;99.90
4964;DHT22;2497;47.410;9.740;2022-11-13T11:18:48;6.30;99.90
4964;DHT22;2497;47.410;9.740;2022-11-13T11:21:20;6.20;99.90
4964;DHT22;2497;47.410;9.740;2022-11-13T11:23:53;6.10;99.90
4964;DHT22;2497;47.410;9.740;2022-11-13T11:26:28;6.00;99.90
4964;DHT22;2497;47.410;9.740;2022-11-13T11:29:11;6.00;99.90
4964;DHT22;2497;47.410;9.740;2022-11-13T11:31:44;6.20;99.90
4964;DHT22;2497;47.410;9.740;2022-11-13T11:34:17;6.40;99.90
4964;DHT22;2497;47.410;9.740;2022-11-13T11:36:54;6.50;99.90
4964;DHT22;2497;47.410;9.740;2022-11-13T11:39:34;6.60;99.90
4964;DHT22;2497;47.410;9.740;2022-11-13T11:42:14;6.60;99.90
4964;DHT22;2497;47.410;9.740;2022-11-13T11:44:56;6.50;99.90
4964;DHT22;2497;47.410;9.740;2022-11-13T11:47:23;6.40;99.90
4964;DHT22;2497;47.410;9.740;2022-11-13T11:49:51;6.20;99.90
4964;DHT22;2497;47.410;9.740;2022-11-13T11:52:33;6.30;99.90
4964;DHT22;2497;47.410;9.740;2022-11-13T11:55:25;6.30;99.90
4964;DHT22;2497;47.410;9.740;2022-11-13T11:58:04;6.40;99.90
4964;DHT22;2497;47.410;9.740;2022-11-13T12:00:38;6.40;99.90
4964;DHT22;2497;47.410;9.740;2022-11-13T12:06:21;6.60;99.90
4964;DHT22;2497;47.410;9.740;2022-11-13T12:08:58;6.80;99.90
4964;DHT22;2497;47.410;9.740;2022-11-13T12:11:29;6.70;99.90
4964;DHT22;2497;47.410;9.740;2022-11-13T12:14:08;6.60;99.90
4964;DHT22;2497;47.410;9.740;2022-11-13T12:16:42;6.70;99.90
4964;DHT22;2497;47.410;9.740;2022-11-13T12:19:19;6.70;99.90
4964;DHT22;2497;47.410;9.740;2022-11-13T12:21:57;6.80;99.90
4964;DHT22;2497;47.410;9.740;2022-11-13T12:24:53;6.80;99.90
4964;DHT22;2497;47.410;9.740;2022-11-13T12:27:28;6.70;99.90
4964;DHT22;2497;47.410;9.740;2022-11-13T12:30:06;6.70;99.90
4964;DHT22;2497;47.410;9.740;2022-11-13T12:35:28;6.50;99.90
4964;DHT22;2497;47.410;9.740;2022-11-13T12:38:01;6.50;99.90
4964;DHT22;2497;47.410;9.740;2022-11-13T12:40:35;6.50;99.90
4964;DHT22;2497;47.410;9.740;2022-11-13T12:43:26;6.60;99.90
4964;DHT22;2497;47.410;9.740;2022-11-13T12:45:59;6.60;99.90
4964;DHT22;2497;47.410;9.740;2022-11-13T12:48:33;6.60;99.90
4964;DHT22;2497;47.410;9.740;2022-11-13T12:51:02;6.60;99.90
4964;DHT22;2497;47.410;9.740;2022-11-13T12:53:42;6.60;99.90
4964;DHT22;2497;47.410;9.740;2022-11-13T12:56:28;6.60;99.90
4964;DHT22;2497;47.410;9.740;2022-11-13T12:58:57;6.60;99.90
4964;DHT22;2497;47.410;9.740;2022-11-13T13:01:29;6.50;99.90
4964;DHT22;2497;47.410;9.740;2022-11-13T13:04:28;6.20;99.90
4964;DHT22;2497;47.410;9.740;2022-11-13T13:07:09;6.30;99.90
4964;DHT22;2497;47.410;9.740;2022-11-13T13:09:48;6.30;99.90
4964;DHT22;2497;47.410;9.740;2022-11-13T13:12:30;6.40;99.90
4964;DHT22;2497;47.410;9.740;2022-11-13T13:15:07;6.40;99.90
4964;DHT22;2497;47.410;9.740;2022-11-13T13:17:38;6.50;99.90
4964;DHT22;2497;47.410;9.740;2022-11-13T13:20:32;6.60;99.90
4964;DHT22;2497;47.410;9.740;2022-11-13T13:23:00;6.50;99.90
4964;DHT22;2497;47.410;9.740;2022-11-13T13:25:30;6.40;99.90
4964;DHT22;2497;47.410;9.740;2022-11-13T13:27:59;6.40;99.90
4964;DHT22;2497;47.410;9.740;2022-11-13T13:30:27;6.40;99.90
4964;DHT22;2497;47.410;9.740;2022-11-13T13:33:07;6.40;99.90
4964;DHT22;2497;47.410;9.740;2022-11-13T13:35:48;6.50;99.90
4964;DHT22;2497;47.410;9.740;2022-11-13T13:38:21;6.40;99.90
4964;DHT22;2497;47.410;9.740;2022-11-13T13:41:13;6.40;99.90
4964;DHT22;2497;47.410;9.740;2022-11-13T13:43:53;6.30;99.90
4964;DHT22;2497;47.410;9.740;2022-11-13T13:46:25;6.30;99.90
4964;DHT22;2497;47.410;9.740;2022-11-13T13:48:56;6.30;99.90
4964;DHT22;2497;47.410;9.740;2022-11-13T13:51:32;6.40;99.90
4964;DHT22;2497;47.410;9.740;2022-11-13T13:54:01;6.50;99.90
4964;DHT22;2497;47.410;9.740;2022-11-13T13:56:32;6.40;99.90
4964;DHT22;2497;47.410;9.740;2022-11-13T13:59:01;6.30;99.90
4964;DHT22;2497;47.410;9.740;2022-11-13T14:01:30;6.30;99.90
4964;DHT22;2497;47.410;9.740;2022-11-13T14:04:10;6.20;99.90
4964;DHT22;2497;47.410;9.740;2022-11-13T14:06:49;6.30;99.90
4964;DHT22;2497;47.410;9.740;2022-11-13T14:09:19;6.30;99.90
4964;DHT22;2497;47.410;9.740;2022-11-13T14:11:47;6.30;99.90
4964;DHT22;2497;47.410;9.740;2022-11-13T14:14:17;6.30;99.90
4964;DHT22;2497;47.410;9.740;2022-11-13T14:16:47;6.30;99.90
4964;DHT22;2497;47.410;9.740;2022-11-13T14:19:14;6.20;99.90
4964;DHT22;2497;47.410;9.740;2022-11-13T14:21:43;6.30;99.90
4964;DHT22;2497;47.410;9.740;2022-11-13T14:24:17;6.30;99.90
4964;DHT22;2497;47.410;9.740;2022-11-13T14:26:46;6.40;99.90
4964;DHT22;2497;47.410;9.740;2022-11-13T14:29:31;6.30;99.90
4964;DHT22;2497;47.410;9.740;2022-11-13T14:32:05;6.20;99.90
4964;DHT22;2497;47.410;9.740;2022-11-13T14:34:33;6.20;99.90
4964;DHT22;2497;47.410;9.740;2022-11-13T14:37:20;6.20;99.90
4964;DHT22;2497;47.410;9.740;2022-11-13T14:39:51;6.10;99.90
4964;DHT22;2497;47.410;9.740;2022-11-13T14:42:20;6.10;99.90
4964;DHT22;2497;47.410;9.740;2022-11-13T14:44:49;6.10;99.90
4964;DHT22;2497;47.410;9.740;2022-11-13T14:47:23;6.20;99.90
4964;DHT22;2497;47.410;9.740;2022-11-13T14:49:51;6.20;99.90
4964;DHT22;2497;47.410;9.740;2022-11-13T14:52:21;6.10;99.90
4964;DHT22;2497;47.410;9.740;2022-11-13T14:55:00;6.10;99.90
4964;DHT22;2497;47.410;9.740;2022-11-13T14:57:28;6.00;99.90
4964;DHT22;2497;47.410;9.740;2022-11-13T15:00:09;5.90;99.90
4964;DHT22;2497;47.410;9.740;2022-11-13T15:02:38;5.80;99.90
4964;DHT22;2497;47.410;9.740;2022-11-13T15:05:07;5.80;99.90
4964;DHT22;2497;47.410;9.740;2022-11-13T15:07:40;5.70;99.90
4964;DHT22;2497;47.410;9.740;2022-11-13T15:10:12;5.80;99.90
4964;DHT22;2497;47.410;9.740;2022-11-13T15:12:41;5.80;99.90
4964;DHT22;2497;47.410;9.740;2022-11-13T15:15:13;5.90;99.90
4964;DHT22;2497;47.410;9.740;2022-11-13T15:17:41;5.90;99.90
4964;DHT22;2497;47.410;9.740;2022-11-13T15:20:13;5.90;99.90
4964;DHT22;2497;47.410;9.740;2022-11-13T15:22:43;5.90;99.90
4964;DHT22;2497;47.410;9.740;2022-11-13T15:25:17;5.90;99.90
4964;DHT22;2497;47.410;9.740;2022-11-13T15:27:45;5.90;99.90
4964;DHT22;2497;47.410;9.740;2022-11-13T15:30:13;6.00;99.90
4964;DHT22;2497;47.410;9.740;2022-11-13T15:32:43;6.00;99.90
4964;DHT22;2497;47.410;9.740;2022-11-13T15:35:16;6.00;99.90
4964;DHT22;2497;47.410;9.740;2022-11-13T15:37:44;5.90;99.90
4964;DHT22;2497;47.410;9.740;2022-11-13T15:40:14;5.90;99.90
4964;DHT22;2497;47.410;9.740;2022-11-13T15:42:43;5.90;99.90
4964;DHT22;2497;47.410;9.740;2022-11-13T15:45:14;5.90;99.90
4964;DHT22;2497;47.410;9.740;2022-11-13T15:47:42;5.90;99.90
4964;DHT22;2497;47.410;9.740;2022-11-13T15:50:10;5.90;99.90
4964;DHT22;2497;47.410;9.740;2022-11-13T15:52:40;5.90;99.90
4964;DHT22;2497;47.410;9.740;2022-11-13T15:55:24;5.90;99.90
4964;DHT22;2497;47.410;9.740;2022-11-13T15:57:53;5.90;99.90
4964;DHT22;2497;47.410;9.740;2022-11-13T16:00:23;5.90;99.90
4964;DHT22;2497;47.410;9.740;2022-11-13T16:02:51;5.80;99.90
4964;DHT22;2497;47.410;9.740;2022-11-13T16:05:20;5.80;99.90
4964;DHT22;2497;47.410;9.740;2022-11-13T16:07:50;5.80;99.90
4964;DHT22;2497;47.410;9.740;2022-11-13T16:10:20;5.80;99.90
4964;DHT22;2497;47.410;9.740;2022-11-13T16:12:50;5.80;99.90
4964;DHT22;2497;47.410;9.740;2022-11-13T16:15:18;5.80;99.90
4964;DHT22;2497;47.410;9.740;2022-11-13T16:17:49;5.80;99.90
4964;DHT22;2497;47.410;9.740;2022-11-13T16:20:18;5.80;99.90
4964;DHT22;2497;47.410;9.740;2022-11-13T16:22:48;5.80;99.90
4964;DHT22;2497;47.410;9.740;2022-11-13T16:25:18;5.80;99.90
4964;DHT22;2497;47.410;9.740;2022-11-13T16:27:48;5.80;99.90
4964;DHT22;2497;47.410;9.740;2022-11-13T16:30:17;5.70;99.90
4964;DHT22;2497;47.410;9.740;2022-11-13T16:32:50;5.70;99.90
4964;DHT22;2497;47.410;9.740;2022-11-13T16:35:19;5.70;99.90
4964;DHT22;2497;47.410;9.740;2022-11-13T16:37:47;5.60;99.90
4964;DHT22;2497;47.410;9.740;2022-11-13T16:40:21;5.60;99.90
4964;DHT22;2497;47.410;9.740;2022-11-13T16:42:52;5.70;99.90
4964;DHT22;2497;47.410;9.740;2022-11-13T16:45:21;5.60;99.90